Time;durP1;ratioP1;P1;durP2;ratioP2;P2;SDS_P1;SDS_P2;PMS_P1;PMS_P2;Temp;Humidity;BMP_temperature;BMP_pressure;BME280_temperature;BME280_humidity;BME280_pressure;Samples;Min_cycle;Max_cycle;Signal;HPM_P1;HPM_P2
2021/08/16 00:01:52;;;;;;;12.27;3.03;;;;;;;17.33;57.81;99205.56;5011594;28;20029;-70
2021/08/16 00:04:17;;;;;;;7.90;3.22;;;;;;;17.34;58.06;99204.56;5010223;28;20551;-69
2021/08/16 00:06:43;;;;;;;10.20;3.40;;;;;;;17.29;57.97;99209.47;5011476;28;20049;-71
2021/08/16 00:09:08;;;;;;;5.65;2.67;;;;;;;17.25;58.11;99201.88;5010173;28;20143;-70
2021/08/16 00:11:35;;;;;;;8.50;3.78;;;;;;;17.18;58.12;99198.91;5012121;28;20037;-70
2021/08/16 00:14:01;;;;;;;8.63;3.28;;;;;;;17.11;58.52;99193.25;5011465;28;20604;-69
2021/08/16 00:16:27;;;;;;;7.95;2.80;;;;;;;17.12;58.35;99183.44;5010979;28;20108;-70
2021/08/16 00:18:52;;;;;;;8.20;2.95;;;;;;;17.10;58.66;99183.56;5009178;28;20156;-70
2021/08/16 00:21:18;;;;;;;6.85;2.40;;;;;;;17.08;58.23;99182.88;5010400;28;20040;-70
2021/08/16 00:23:43;;;;;;;10.65;3.10;;;;;;;17.06;58.53;99176.81;5009837;28;20405;-70
2021/08/16 00:26:08;;;;;;;5.75;2.60;;;;;;;17.01;58.47;99178.22;5019010;28;20041;-70
2021/08/16 00:28:34;;;;;;;6.10;3.83;;;;;;;17.01;58.49;99179.03;5027960;28;20095;-70
2021/08/16 00:30:59;;;;;;;8.52;2.90;;;;;;;16.97;58.89;99171.44;5028535;28;20042;-70
2021/08/16 00:33:24;;;;;;;12.93;2.78;;;;;;;16.94;58.57;99176.06;5026816;28;20038;-68
2021/08/16 00:35:50;;;;;;;8.65;2.72;;;;;;;16.95;58.66;99176.88;5025318;28;20048;-68
2021/08/16 00:38:15;;;;;;;6.07;2.45;;;;;;;16.91;59.21;99171.00;5023987;28;20099;-68
2021/08/16 00:40:40;;;;;;;7.03;2.10;;;;;;;16.85;59.23;99163.50;5006508;28;20441;-69
2021/08/16 00:43:06;;;;;;;7.18;2.53;;;;;;;16.82;59.47;99160.28;5005788;28;20394;-68
2021/08/16 00:45:32;;;;;;;6.10;2.40;;;;;;;16.80;59.40;99156.91;5004164;28;20044;-69
2021/08/16 00:47:57;;;;;;;5.07;2.60;;;;;;;16.78;59.53;99156.16;5008222;28;20034;-69
2021/08/16 00:50:23;;;;;;;11.48;3.25;;;;;;;16.75;59.49;99155.44;5007574;28;20375;-70
2021/08/16 00:52:49;;;;;;;5.50;2.60;;;;;;;16.76;59.79;99156.31;5007808;28;20042;-69
2021/08/16 00:55:14;;;;;;;6.93;2.30;;;;;;;16.77;59.71;99146.50;5009626;28;20632;-69
2021/08/16 00:57:41;;;;;;;10.82;3.65;;;;;;;16.66;59.91;99150.91;5009021;28;20065;-69
2021/08/16 01:00:08;;;;;;;4.68;2.10;;;;;;;16.68;59.97;99148.94;5007662;28;20092;-69
2021/08/16 01:02:34;;;;;;;5.18;2.53;;;;;;;16.65;60.16;99154.53;4986069;28;20030;-70
2021/08/16 01:05:05;;;;;;;11.07;3.08;;;;;;;16.64;60.05;99150.19;5009621;28;20104;-69
2021/08/16 01:07:32;;;;;;;5.93;2.42;;;;;;;16.58;60.69;99157.84;5008343;28;20124;-70
2021/08/16 01:09:57;;;;;;;4.07;2.40;;;;;;;16.58;62.20;99157.84;4996482;28;20546;-52
2021/08/16 01:12:23;;;;;;;6.10;2.88;;;;;;;16.87;61.40;99153.59;4999415;28;20069;-55
2021/08/16 01:14:49;;;;;;;5.80;2.60;;;;;;;17.06;60.35;99150.19;5011307;28;20076;-55
2021/08/16 01:17:14;;;;;;;4.43;2.30;;;;;;;17.22;59.32;99148.84;5008532;28;20038;-55
2021/08/16 01:19:40;;;;;;;3.42;2.13;;;;;;;17.38;58.71;99150.06;5008974;28;20038;-50
2021/08/16 01:22:06;;;;;;;6.93;3.28;;;;;;;17.48;58.46;99135.94;5008817;28;20038;-52
2021/08/16 01:24:31;;;;;;;9.35;2.92;;;;;;;17.54;58.11;99148.69;5008636;28;20034;-54
2021/08/16 01:27:03;;;;;;;6.75;3.13;;;;;;;17.51;58.38;99138.31;5006916;28;20081;-55
2021/08/16 01:29:29;;;;;;;7.07;3.00;;;;;;;17.30;58.78;99139.22;5006490;28;20037;-70
2021/08/16 01:31:54;;;;;;;7.78;3.55;;;;;;;16.98;59.95;99139.34;5007969;28;20034;-69
2021/08/16 01:34:19;;;;;;;5.35;3.05;;;;;;;16.72;60.49;99134.41;4987826;28;20411;-71
2021/08/16 01:36:45;;;;;;;7.60;2.95;;;;;;;16.61;60.92;99138.94;4988587;28;20514;-69
2021/08/16 01:39:10;;;;;;;4.70;2.25;;;;;;;16.54;61.28;99138.66;5000163;28;20485;-69
2021/08/16 01:41:36;;;;;;;5.25;3.05;;;;;;;16.40;62.08;99149.59;5009155;28;20052;-69
2021/08/16 01:44:02;;;;;;;10.07;3.03;;;;;;;16.29;62.09;99137.16;5006645;28;20044;-69
2021/08/16 01:46:27;;;;;;;10.43;2.60;;;;;;;16.24;62.29;99142.03;5006697;28;20050;-69
2021/08/16 01:48:53;;;;;;;9.55;2.90;;;;;;;16.15;62.92;99137.50;5008396;28;20056;-72
2021/08/16 01:51:18;;;;;;;8.48;2.80;;;;;;;16.05;63.25;99135.59;5006248;28;20579;-70
2021/08/16 01:53:44;;;;;;;5.93;3.35;;;;;;;15.96;63.22;99139.00;5006269;28;20042;-69
2021/08/16 01:56:09;;;;;;;10.05;3.30;;;;;;;15.93;63.64;99141.91;5007996;28;20249;-69
2021/08/16 01:58:35;;;;;;;10.15;2.50;;;;;;;15.89;63.84;99136.00;5006838;28;20479;-69
2021/08/16 02:01:00;;;;;;;8.27;3.05;;;;;;;15.92;63.57;99139.38;5006210;28;20493;-68
2021/08/16 02:03:25;;;;;;;7.82;3.75;;;;;;;15.89;63.76;99143.13;5007877;28;20036;-69
2021/08/16 02:05:51;;;;;;;7.50;2.92;;;;;;;15.88;63.61;99144.94;5007204;28;20115;-69
2021/08/16 02:08:16;;;;;;;5.65;2.80;;;;;;;15.84;63.58;99145.31;5008095;28;20398;-68
2021/08/16 02:10:42;;;;;;;8.65;2.42;;;;;;;15.79;63.95;99142.19;5009498;28;20034;-69
2021/08/16 02:13:11;;;;;;;10.23;3.05;;;;;;;15.77;64.40;99133.50;5012379;28;20117;-70
2021/08/16 02:15:37;;;;;;;8.35;2.38;;;;;;;15.76;64.02;99145.09;5012183;28;20034;-69
2021/08/16 02:18:03;;;;;;;5.55;2.97;;;;;;;15.78;64.06;99145.84;5011587;28;20447;-70
2021/08/16 02:20:28;;;;;;;7.88;3.35;;;;;;;15.77;64.25;99150.28;5011850;28;20060;-69
2021/08/16 02:22:54;;;;;;;5.68;2.38;;;;;;;15.78;64.38;99144.00;5012954;28;20375;-70
2021/08/16 02:25:19;;;;;;;6.43;2.67;;;;;;;15.82;64.53;99147.25;5012137;28;20034;-70
2021/08/16 02:27:47;;;;;;;8.75;2.83;;;;;;;15.90;64.14;99152.81;5011745;28;20034;-69
2021/08/16 02:30:14;;;;;;;11.13;2.72;;;;;;;15.96;64.13;99140.81;5012046;28;20478;-68
2021/08/16 02:32:40;;;;;;;4.78;2.65;;;;;;;15.91;64.39;99138.53;5010699;28;20037;-68
2021/08/16 02:35:06;;;;;;;6.70;2.40;;;;;;;15.91;64.65;99135.03;5011887;28;20457;-71
2021/08/16 02:37:31;;;;;;;6.15;2.50;;;;;;;15.92;64.50;99134.91;5011365;28;20057;-70
2021/08/16 02:39:56;;;;;;;4.88;2.35;;;;;;;15.94;64.68;99140.09;5012237;28;20107;-68
2021/08/16 02:42:22;;;;;;;11.95;2.72;;;;;;;15.96;64.32;99140.81;5003203;28;20049;-69
2021/08/16 02:44:47;;;;;;;8.32;3.08;;;;;;;15.97;64.71;99137.19;5000327;28;20053;-69
2021/08/16 02:47:12;;;;;;;8.27;2.40;;;;;;;15.98;64.76;99137.06;4990268;28;20065;-70
2021/08/16 02:49:38;;;;;;;10.05;3.00;;;;;;;15.99;64.71;99136.09;4992493;28;20445;-70
2021/08/16 02:52:06;;;;;;;6.95;2.45;;;;;;;16.03;64.75;99134.88;4991269;28;20494;-70
2021/08/16 02:54:31;;;;;;;7.93;2.40;;;;;;;16.06;64.59;99134.59;4991612;28;20064;-70
2021/08/16 02:56:57;;;;;;;6.18;2.63;;;;;;;16.08;64.64;99135.34;4991908;28;20050;-70
2021/08/16 02:59:22;;;;;;;11.57;2.63;;;;;;;16.10;64.87;99138.72;4992385;28;20105;-70
2021/08/16 03:01:47;;;;;;;8.48;3.92;;;;;;;16.12;65.03;99135.94;4989611;28;20102;-70
2021/08/16 03:04:13;;;;;;;7.97;3.22;;;;;;;16.09;65.02;99136.16;5000349;28;20109;-70
2021/08/16 03:06:38;;;;;;;6.43;2.65;;;;;;;16.04;65.34;99133.03;5010144;28;20482;-70
2021/08/16 03:09:03;;;;;;;12.60;3.20;;;;;;;16.05;65.53;99138.25;5011328;28;20038;-70
2021/08/16 03:11:29;;;;;;;9.82;3.25;;;;;;;16.08;65.50;99139.81;5011302;28;20062;-70
2021/08/16 03:13:54;;;;;;;6.93;2.92;;;;;;;16.03;65.58;99137.53;5012463;28;20754;-70
2021/08/16 03:16:20;;;;;;;6.68;3.65;;;;;;;16.06;65.81;99131.13;5008735;28;20083;-70
2021/08/16 03:18:45;;;;;;;11.32;3.70;;;;;;;16.10;65.59;99136.06;5011133;28;20030;-70
2021/08/16 03:21:11;;;;;;;8.32;3.78;;;;;;;16.07;65.81;99136.31;5009661;28;20026;-70
2021/08/16 03:23:36;;;;;;;8.27;2.95;;;;;;;16.09;65.92;99130.84;5009512;28;20030;-70
2021/08/16 03:26:01;;;;;;;8.13;3.45;;;;;;;16.05;66.03;99135.59;5010189;28;20687;-70
2021/08/16 03:28:28;;;;;;;9.55;3.45;;;;;;;16.03;66.47;99134.88;5010930;28;20490;-70
2021/08/16 03:30:53;;;;;;;10.82;3.35;;;;;;;16.02;66.69;99130.53;5010973;28;20080;-70
2021/08/16 03:33:19;;;;;;;8.43;3.25;;;;;;;16.05;66.57;99129.44;5011125;28;20104;-69
2021/08/16 03:35:44;;;;;;;6.68;2.58;;;;;;;16.06;66.65;99121.31;5011152;28;20496;-70
2021/08/16 03:38:10;;;;;;;9.00;2.50;;;;;;;16.09;66.36;99117.56;5009932;28;20478;-71
2021/08/16 03:40:35;;;;;;;6.43;2.50;;;;;;;16.09;66.28;99126.38;5010686;28;20045;-70
2021/08/16 03:43:00;;;;;;;6.28;2.88;;;;;;;16.10;66.15;99111.28;5011079;28;20042;-71
2021/08/16 03:45:26;;;;;;;14.80;4.32;;;;;;;16.04;66.83;99117.09;5011375;28;20038;-70
2021/08/16 03:47:51;;;;;;;8.93;3.30;;;;;;;16.01;66.99;99109.38;5009919;28;20042;-71
2021/08/16 03:50:17;;;;;;;5.65;2.72;;;;;;;16.03;66.92;99115.41;5009356;28;20046;-70
2021/08/16 03:52:43;;;;;;;8.25;2.72;;;;;;;15.99;67.18;99119.28;5008842;28;20030;-70
2021/08/16 03:55:08;;;;;;;12.75;3.05;;;;;;;16.00;67.58;99121.00;5010467;28;20038;-70
2021/08/16 03:57:34;;;;;;;7.65;2.80;;;;;;;15.99;67.66;99120.13;5009906;28;20390;-70
2021/08/16 03:59:59;;;;;;;7.95;3.28;;;;;;;15.97;67.78;99119.41;5011018;28;20045;-70
2021/08/16 04:02:24;;;;;;;6.82;2.40;;;;;;;15.98;67.95;99122.94;5007495;28;20117;-70
2021/08/16 04:04:50;;;;;;;11.43;3.60;;;;;;;15.98;68.05;99128.25;5010434;28;20041;-70
2021/08/16 04:07:15;;;;;;;7.95;3.08;;;;;;;15.97;68.08;99122.06;5008896;28;20129;-70
2021/08/16 04:09:40;;;;;;;8.55;3.28;;;;;;;15.99;68.26;99122.78;5009680;28;20059;-70
2021/08/16 04:12:06;;;;;;;5.57;2.85;;;;;;;16.02;68.11;99124.34;5009224;28;20405;-70
2021/08/16 04:14:32;;;;;;;6.03;2.90;;;;;;;16.03;68.39;99118.06;5010821;28;20514;-70
2021/08/16 04:16:57;;;;;;;9.80;3.75;;;;;;;16.02;68.46;99119.03;5009378;28;20084;-70
2021/08/16 04:19:23;;;;;;;8.70;4.25;;;;;;;16.00;68.62;99119.19;5010165;28;20034;-69
2021/08/16 04:21:48;;;;;;;6.60;2.65;;;;;;;16.03;68.64;99118.91;5010229;28;20716;-71
2021/08/16 04:24:14;;;;;;;10.93;3.25;;;;;;;16.01;68.81;99120.00;5008125;28;20487;-70
2021/08/16 04:26:39;;;;;;;7.13;3.50;;;;;;;16.00;68.63;99121.84;5009621;28;20151;-70
2021/08/16 04:29:05;;;;;;;5.82;3.10;;;;;;;16.00;69.11;99121.00;5010366;28;20110;-70
2021/08/16 04:31:30;;;;;;;9.95;3.97;;;;;;;15.99;69.24;99121.94;5010032;28;20547;-70
2021/08/16 04:33:55;;;;;;;10.00;3.40;;;;;;;15.97;69.22;99127.38;5016414;28;20507;-69
2021/08/16 04:36:21;;;;;;;10.68;3.30;;;;;;;15.94;69.22;99124.97;5029230;28;20033;-69
2021/08/16 04:38:47;;;;;;;13.43;3.75;;;;;;;15.95;69.59;99126.69;5025858;28;20021;-69
2021/08/16 04:41:12;;;;;;;8.30;3.17;;;;;;;15.97;69.30;99121.22;4990440;28;20483;-69
2021/08/16 04:43:37;;;;;;;8.25;3.00;;;;;;;16.00;69.30;99127.16;4990781;28;20045;-70
2021/08/16 04:46:03;;;;;;;10.07;4.18;;;;;;;16.02;69.17;99130.53;4990908;28;20046;-70
2021/08/16 04:48:28;;;;;;;9.05;3.22;;;;;;;16.01;69.56;99126.16;4989470;28;20455;-70
2021/08/16 04:50:53;;;;;;;8.40;4.10;;;;;;;15.94;69.56;99124.97;4990259;28;20035;-70
2021/08/16 04:53:19;;;;;;;10.43;4.13;;;;;;;15.95;69.74;99132.00;4990511;28;20140;-70
2021/08/16 04:55:44;;;;;;;11.30;4.28;;;;;;;15.95;69.93;99132.00;4991225;28;20036;-70
2021/08/16 04:58:10;;;;;;;11.13;3.38;;;;;;;15.96;69.97;99135.50;4989559;28;20034;-70
2021/08/16 05:00:35;;;;;;;11.63;3.65;;;;;;;15.92;70.54;99139.38;4990185;28;20446;-72
2021/08/16 05:03:02;;;;;;;14.02;3.88;;;;;;;15.92;70.26;99145.53;4993907;28;20058;-70
2021/08/16 05:05:29;;;;;;;8.93;3.08;;;;;;;15.97;70.62;99142.50;4988737;28;20054;-70
2021/08/16 05:07:57;;;;;;;8.95;3.53;;;;;;;15.97;71.36;99143.34;4988864;28;20054;-70
2021/08/16 05:10:24;;;;;;;9.60;3.30;;;;;;;15.98;71.31;99146.84;4989797;28;20057;-70
2021/08/16 05:12:52;;;;;;;10.80;4.20;;;;;;;15.99;71.44;99144.06;4989515;28;20089;-70
2021/08/16 05:15:19;;;;;;;8.35;3.85;;;;;;;15.95;71.48;99141.78;4989705;28;20038;-70
2021/08/16 05:17:44;;;;;;;7.57;3.20;;;;;;;15.89;71.71;99151.09;4988817;28;20081;-70
2021/08/16 05:20:11;;;;;;;5.15;2.83;;;;;;;15.84;71.83;99155.94;4989002;28;20034;-70
2021/08/16 05:22:38;;;;;;;7.80;2.90;;;;;;;15.90;71.86;99158.13;4989966;28;20062;-70
2021/08/16 05:25:09;;;;;;;8.73;3.10;;;;;;;15.93;71.85;99157.88;4990565;28;20041;-70
2021/08/16 05:27:34;;;;;;;8.20;3.63;;;;;;;15.87;71.90;99153.03;4990057;28;20038;-70
2021/08/16 05:29:59;;;;;;;13.90;3.38;;;;;;;15.82;72.27;99145.44;4992808;28;20118;-70
2021/08/16 05:32:25;;;;;;;7.60;3.03;;;;;;;15.83;72.08;99148.97;4990674;28;20053;-69
2021/08/16 05:34:51;;;;;;;6.95;3.30;;;;;;;15.84;72.48;99148.81;4989896;28;20030;-69
2021/08/16 05:37:16;;;;;;;11.43;3.83;;;;;;;15.85;72.37;99147.00;4988613;28;20080;-70
2021/08/16 05:39:42;;;;;;;7.32;3.50;;;;;;;15.93;72.13;99152.56;4998551;28;20070;-70
2021/08/16 05:42:07;;;;;;;8.10;3.25;;;;;;;15.97;72.01;99155.78;5009388;28;20037;-68
2021/08/16 05:44:33;;;;;;;8.55;3.08;;;;;;;15.98;71.76;99149.53;5009720;28;20168;-70
2021/08/16 05:47:01;;;;;;;9.27;3.13;;;;;;;15.97;71.75;99158.44;5011219;28;20033;-70
2021/08/16 05:49:26;;;;;;;10.68;3.35;;;;;;;15.98;72.15;99158.34;5015460;28;20030;-70
2021/08/16 05:51:52;;;;;;;10.55;2.92;;;;;;;16.01;72.01;99149.25;5028315;28;20394;-69
2021/08/16 05:54:17;;;;;;;9.02;3.83;;;;;;;16.00;71.79;99147.59;5033801;28;20034;-70
2021/08/16 05:56:42;;;;;;;9.50;3.20;;;;;;;15.99;71.79;99157.34;5030751;28;20393;-70
2021/08/16 05:59:08;;;;;;;9.45;3.97;;;;;;;16.02;71.79;99164.22;5029686;28;20037;-71
2021/08/16 06:01:38;;;;;;;6.65;3.05;;;;;;;16.05;71.95;99158.69;5032861;28;20401;-69
2021/08/16 06:04:04;;;;;;;6.95;3.08;;;;;;;16.08;72.00;99155.75;5032071;28;20064;-70
2021/08/16 06:06:29;;;;;;;9.65;2.75;;;;;;;16.09;72.17;99157.44;5031855;28;20029;-71
2021/08/16 06:08:56;;;;;;;7.63;2.70;;;;;;;16.14;71.71;99157.06;5030693;28;20117;-71
2021/08/16 06:11:22;;;;;;;8.18;2.95;;;;;;;16.21;71.48;99158.25;5032291;28;20034;-71
2021/08/16 06:13:47;;;;;;;12.50;3.30;;;;;;;16.20;71.72;99157.41;5032265;28;20035;-71
2021/08/16 06:16:12;;;;;;;8.18;3.60;;;;;;;16.26;71.69;99158.72;5032363;28;20448;-71
2021/08/16 06:18:38;;;;;;;10.20;3.60;;;;;;;16.32;71.14;99152.91;5030118;28;20416;-71
2021/08/16 06:21:03;;;;;;;8.65;4.15;;;;;;;16.36;71.35;99156.97;5032485;28;20087;-69
2021/08/16 06:23:28;;;;;;;7.47;3.35;;;;;;;16.34;71.33;99155.41;5032047;28;20037;-71
2021/08/16 06:25:54;;;;;;;5.68;2.85;;;;;;;16.37;71.39;99156.03;5028446;28;20485;-68
2021/08/16 06:28:19;;;;;;;4.78;2.92;;;;;;;16.38;71.32;99157.69;5009630;28;20105;-69
2021/08/16 06:30:44;;;;;;;8.20;3.30;;;;;;;16.42;71.44;99158.31;5010574;28;20040;-70
2021/08/16 06:33:10;;;;;;;10.57;3.35;;;;;;;16.44;71.51;99151.00;5008655;28;20380;-71
2021/08/16 06:35:36;;;;;;;6.50;3.42;;;;;;;16.44;71.56;99157.19;5010599;28;20038;-71
2021/08/16 06:38:02;;;;;;;8.38;3.42;;;;;;;16.46;71.66;99152.56;5010464;28;20045;-71
2021/08/16 06:40:28;;;;;;;7.00;2.90;;;;;;;16.48;71.78;99152.44;5009600;28;20449;-69
2021/08/16 06:42:53;;;;;;;13.70;3.30;;;;;;;16.47;72.63;99151.63;5007043;28;20041;-69
2021/08/16 06:45:19;;;;;;;7.50;2.95;;;;;;;16.49;72.38;99155.00;5009498;28;20088;-69
2021/08/16 06:47:44;;;;;;;8.95;3.35;;;;;;;16.41;72.59;99157.44;5010087;28;20379;-70
2021/08/16 06:50:09;;;;;;;6.07;3.40;;;;;;;16.38;72.52;99165.69;5009949;28;20539;-70
2021/08/16 06:52:35;;;;;;;11.95;3.97;;;;;;;16.39;72.81;99153.22;5012296;28;20034;-69
2021/08/16 06:55:00;;;;;;;12.88;3.35;;;;;;;16.43;72.63;99158.16;5011516;28;20084;-70
2021/08/16 06:57:27;;;;;;;9.57;3.85;;;;;;;16.42;72.72;99159.13;5010235;28;20454;-70
2021/08/16 06:59:53;;;;;;;9.77;4.07;;;;;;;16.43;72.84;99160.81;5011475;28;20042;-70
2021/08/16 07:02:19;;;;;;;17.85;3.83;;;;;;;16.48;73.05;99158.59;5011304;28;20037;-70
2021/08/16 07:04:44;;;;;;;6.93;4.05;;;;;;;16.55;72.67;99153.63;5009722;28;20037;-70
2021/08/16 07:07:10;;;;;;;8.27;3.47;;;;;;;16.59;72.39;99155.06;5009287;28;20036;-70
2021/08/16 07:09:35;;;;;;;17.10;5.00;;;;;;;16.60;72.80;99153.25;5010976;28;20442;-70
2021/08/16 07:12:00;;;;;;;14.55;4.78;;;;;;;16.62;72.33;99160.13;5009672;28;20045;-70
2021/08/16 07:14:26;;;;;;;9.38;4.55;;;;;;;16.67;72.55;99149.09;5009383;28;20137;-71
2021/08/16 07:16:51;;;;;;;12.30;3.33;;;;;;;16.71;72.21;99154.03;5009677;28;20486;-70
2021/08/16 07:19:16;;;;;;;11.40;4.07;;;;;;;16.78;71.95;99154.38;5011061;28;20034;-70
2021/08/16 07:21:43;;;;;;;13.77;4.05;;;;;;;16.82;71.94;99152.28;5011332;28;20113;-70
2021/08/16 07:24:09;;;;;;;8.30;4.55;;;;;;;16.89;72.26;99148.13;5011366;28;20088;-70
2021/08/16 07:26:34;;;;;;;11.63;4.30;;;;;;;17.02;71.10;99154.09;5009517;28;20566;-69
2021/08/16 07:28:59;;;;;;;14.80;4.22;;;;;;;17.12;71.05;99152.31;5008336;28;20049;-68
2021/08/16 07:31:24;;;;;;;8.20;3.70;;;;;;;17.08;70.81;99150.91;5009124;28;20405;-69
2021/08/16 07:33:51;;;;;;;10.70;3.72;;;;;;;17.20;70.47;99153.47;5008067;28;21982;-70
2021/08/16 07:36:16;;;;;;;13.57;4.03;;;;;;;17.25;70.45;99151.25;5009525;28;20460;-70
2021/08/16 07:38:42;;;;;;;13.95;3.95;;;;;;;17.25;69.91;99152.09;5007768;28;20033;-70
2021/08/16 07:41:07;;;;;;;9.07;3.30;;;;;;;17.30;69.98;99149.03;5010242;28;20112;-70
2021/08/16 07:43:32;;;;;;;7.95;3.40;;;;;;;17.38;69.85;99150.06;5009726;28;20080;-69
2021/08/16 07:45:58;;;;;;;15.07;4.43;;;;;;;17.29;69.58;99140.19;5008888;28;20491;-70
2021/08/16 07:48:23;;;;;;;9.65;3.15;;;;;;;17.31;70.03;99132.06;5008893;28;20387;-71
2021/08/16 07:50:49;;;;;;;6.30;3.33;;;;;;;17.73;71.38;99131.91;4997530;28;20456;-51
2021/08/16 07:53:14;;;;;;;8.35;3.65;;;;;;;18.17;67.81;99122.59;4999424;28;20041;-48
2021/08/16 07:55:40;;;;;;;11.05;4.47;;;;;;;18.41;66.79;99110.63;5005039;28;20040;-49
2021/08/16 07:58:06;;;;;;;12.88;3.70;;;;;;;18.67;65.62;99108.22;5004465;28;20109;-51
2021/08/16 08:00:31;;;;;;;8.00;3.75;;;;;;;18.89;64.58;99112.41;5005440;28;20113;-66
2021/08/16 08:02:57;;;;;;;6.88;3.78;;;;;;;18.96;64.17;99110.00;5004939;28;20774;-66
2021/08/16 08:05:24;;;;;;;8.85;3.75;;;;;;;18.94;64.02;99122.66;5004844;28;20057;-66
2021/08/16 08:07:49;;;;;;;6.70;2.78;;;;;;;18.94;64.07;99122.66;5003628;28;20049;-67
2021/08/16 08:10:16;;;;;;;12.05;3.95;;;;;;;19.09;63.58;99121.19;5003149;28;20042;-66
2021/08/16 08:12:47;;;;;;;9.60;3.63;;;;;;;19.26;62.88;99125.75;5003630;28;20132;-66
2021/08/16 08:15:13;;;;;;;6.30;2.80;;;;;;;19.37;62.44;99129.22;5004831;28;20494;-66
2021/08/16 08:17:39;;;;;;;8.75;3.35;;;;;;;19.47;62.30;99135.41;5003880;28;20042;-66
2021/08/16 08:20:06;;;;;;;7.97;2.88;;;;;;;19.42;61.93;99126.94;5002214;28;20048;-66
2021/08/16 08:22:32;;;;;;;10.63;3.50;;;;;;;19.58;61.48;99139.69;4996234;28;20474;-67
2021/08/16 08:24:59;;;;;;;13.27;3.47;;;;;;;19.69;60.55;99136.81;4989463;28;20045;-67
2021/08/16 08:27:24;;;;;;;13.70;3.30;;;;;;;19.71;60.55;99135.72;5003582;28;20427;-66
2021/08/16 08:29:49;;;;;;;10.82;4.00;;;;;;;19.73;60.11;99136.38;5004615;28;20041;-66
2021/08/16 08:32:15;;;;;;;9.05;3.45;;;;;;;19.78;59.24;99137.78;5004431;28;20785;-66
2021/08/16 08:34:41;;;;;;;9.23;3.13;;;;;;;19.86;59.10;99151.22;5005202;28;20056;-66
2021/08/16 08:37:10;;;;;;;11.57;3.85;;;;;;;19.80;59.40;99143.81;5004559;28;20034;-66
2021/08/16 08:39:39;;;;;;;6.90;2.85;;;;;;;19.84;59.19;99148.72;5004443;28;20734;-65
2021/08/16 08:42:06;;;;;;;5.43;2.78;;;;;;;19.86;58.92;99135.19;5005331;28;20030;-66
2021/08/16 08:44:32;;;;;;;14.93;3.97;;;;;;;19.85;58.85;99142.38;4999491;28;20034;-66
2021/08/16 08:46:58;;;;;;;9.35;3.05;;;;;;;19.97;58.31;99150.19;5003518;28;20038;-65
2021/08/16 08:49:23;;;;;;;7.68;2.78;;;;;;;20.05;58.38;99143.06;5003789;28;20164;-66
2021/08/16 08:51:49;;;;;;;8.80;2.80;;;;;;;20.11;58.07;99155.03;5003193;28;20045;-66
2021/08/16 08:54:16;;;;;;;12.98;3.67;;;;;;;20.32;57.24;99152.03;5003840;28;20041;-66
2021/08/16 08:56:42;;;;;;;7.65;2.80;;;;;;;20.29;57.46;99152.34;5002433;28;20405;-66
2021/08/16 08:59:07;;;;;;;4.80;2.60;;;;;;;20.33;57.33;99153.69;4999472;28;20042;-66
2021/08/16 09:01:33;;;;;;;6.57;2.67;;;;;;;20.40;57.14;99154.78;4997773;28;20153;-67
2021/08/16 09:03:58;;;;;;;7.40;2.78;;;;;;;20.55;56.92;99152.41;5003737;28;20413;-66
2021/08/16 09:06:31;;;;;;;9.23;2.80;;;;;;;20.69;56.77;99162.56;5003059;28;20037;-66
2021/08/16 09:08:58;;;;;;;11.77;3.35;;;;;;;20.55;56.74;99168.47;5003760;28;20050;-67
2021/08/16 09:11:27;;;;;;;7.85;2.88;;;;;;;20.36;56.87;99169.47;5003976;28;20042;-66
2021/08/16 09:13:57;;;;;;;6.57;2.95;;;;;;;20.43;57.14;99158.97;5003968;28;20037;-66
2021/08/16 09:16:24;;;;;;;8.23;2.65;;;;;;;20.43;56.99;99164.31;5003329;28;20030;-67
2021/08/16 09:18:50;;;;;;;9.95;3.15;;;;;;;20.42;56.98;99166.16;5003658;28;20753;-66
2021/08/16 09:21:25;;;;;;;7.95;2.65;;;;;;;20.36;57.18;99164.97;5003122;28;20041;-66
2021/08/16 09:23:54;;;;;;;7.65;3.10;;;;;;;20.44;57.12;99163.34;5003360;28;20034;-66
2021/08/16 09:26:31;;;;;;;11.85;3.72;;;;;;;20.44;56.53;99169.53;5003333;28;20572;-67
2021/08/16 09:29:08;;;;;;;6.35;2.88;;;;;;;20.38;57.11;99168.34;5003803;28;20046;-66
2021/08/16 09:31:33;;;;;;;8.43;3.17;;;;;;;20.40;57.35;99168.16;5003963;28;20116;-66
2021/08/16 09:34:02;;;;;;;8.93;4.50;;;;;;;20.45;57.04;99167.69;5003140;28;20155;-66
2021/08/16 09:36:39;;;;;;;11.90;3.95;;;;;;;20.21;57.29;99169.19;5002744;28;20042;-67
2021/08/16 09:39:19;;;;;;;16.48;3.17;;;;;;;20.03;58.24;99162.94;5002917;28;20494;-66
2021/08/16 09:41:46;;;;;;;9.00;3.55;;;;;;;19.95;58.55;99169.06;5002988;28;20040;-66
2021/08/16 09:44:13;;;;;;;8.05;3.25;;;;;;;19.94;58.51;99178.09;5016223;28;20045;-66
2021/08/16 09:46:39;;;;;;;11.30;4.32;;;;;;;20.00;58.50;99166.78;5022769;28;20033;-67
2021/08/16 09:49:06;;;;;;;7.20;3.20;;;;;;;20.14;57.60;99174.28;5034945;28;20028;-66
2021/08/16 09:51:32;;;;;;;9.68;3.42;;;;;;;20.45;56.92;99170.38;5015600;28;20030;-66
2021/08/16 09:53:59;;;;;;;4.70;3.08;;;;;;;20.52;56.59;99174.13;4983356;28;20069;-66
2021/08/16 09:56:25;;;;;;;8.40;3.08;;;;;;;20.36;56.96;99175.66;4983324;28;20049;-66
2021/08/16 09:58:51;;;;;;;8.27;3.20;;;;;;;20.44;56.82;99168.72;4983407;28;20035;-66
2021/08/16 10:01:17;;;;;;;11.40;3.28;;;;;;;20.53;56.96;99173.97;4983575;28;20502;-66
2021/08/16 10:03:43;;;;;;;5.72;3.42;;;;;;;20.56;56.26;99178.22;4983307;28;20034;-67
2021/08/16 10:06:11;;;;;;;9.38;4.25;;;;;;;20.58;56.25;99184.28;4984016;28;20042;-67
2021/08/16 10:08:46;;;;;;;13.30;3.72;;;;;;;20.59;56.30;99177.91;5002510;28;20061;-65
2021/08/16 10:11:19;;;;;;;8.10;3.67;;;;;;;20.80;56.28;99174.91;5003315;28;20104;-66
2021/08/16 10:13:49;;;;;;;7.45;3.33;;;;;;;20.83;56.12;99176.44;5003133;28;20300;-67
2021/08/16 10:16:19;;;;;;;10.23;2.80;;;;;;;20.88;56.16;99184.84;5003451;28;20489;-65
2021/08/16 10:18:51;;;;;;;7.03;3.17;;;;;;;20.74;57.29;99180.88;5003861;28;20505;-65
2021/08/16 10:21:22;;;;;;;5.30;3.00;;;;;;;20.59;58.00;99188.63;5022745;28;20498;-66
2021/08/16 10:23:53;;;;;;;15.18;4.10;;;;;;;20.42;59.68;99184.06;5023101;28;20096;-71
2021/08/16 10:26:34;;;;;;;11.07;3.72;;;;;;;20.17;63.06;99189.19;5022771;28;20044;-71
2021/08/16 10:29:02;;;;;;;6.72;3.47;;;;;;;19.88;63.83;99195.56;5022879;28;20215;-70
2021/08/16 10:31:36;;;;;;;8.45;3.42;;;;;;;19.73;64.36;99191.72;5022638;28;20099;-70
2021/08/16 10:34:02;;;;;;;5.05;3.40;;;;;;;19.60;64.92;99197.38;5026239;28;20600;-70
2021/08/16 10:36:28;;;;;;;5.80;3.15;;;;;;;19.47;64.69;99205.75;5017201;28;20622;-71
2021/08/16 10:38:56;;;;;;;7.07;3.25;;;;;;;19.28;64.88;99203.97;5003301;28;20038;-71
2021/08/16 10:41:30;;;;;;;6.00;3.13;;;;;;;19.23;65.55;99205.41;4986481;28;20034;-72
2021/08/16 10:43:56;;;;;;;8.43;3.75;;;;;;;19.23;66.84;99206.22;4987632;28;20038;-70
2021/08/16 10:46:23;;;;;;;7.60;3.58;;;;;;;19.22;68.09;99204.56;4999425;28;20048;-71
2021/08/16 10:49:02;;;;;;;11.43;4.40;;;;;;;19.08;69.65;99197.84;5006285;28;20426;-70
2021/08/16 10:51:45;;;;;;;8.52;3.60;;;;;;;18.76;70.61;99208.03;5006240;28;20046;-71
2021/08/16 10:54:27;;;;;;;9.02;3.72;;;;;;;18.55;70.78;99198.28;5006253;28;20037;-71
2021/08/16 10:56:55;;;;;;;5.72;3.42;;;;;;;18.52;71.77;99201.25;5005254;28;20038;-71
2021/08/16 10:59:22;;;;;;;6.93;3.75;;;;;;;18.52;71.63;99201.25;5005821;28;20383;-71
2021/08/16 11:01:48;;;;;;;5.45;3.35;;;;;;;18.53;72.54;99205.59;5005739;28;20125;-71
2021/08/16 11:04:16;;;;;;;11.60;3.90;;;;;;;18.42;73.25;99219.09;5006289;28;20546;-71
2021/08/16 11:07:08;;;;;;;12.63;4.72;;;;;;;18.21;74.85;99229.88;5005788;28;20048;-70
2021/08/16 11:09:36;;;;;;;7.57;4.07;;;;;;;17.99;75.45;99228.28;5005662;28;20123;-70
2021/08/16 11:12:08;;;;;;;8.27;4.47;;;;;;;17.79;76.16;99233.53;5005450;28;20053;-71
2021/08/16 11:14:36;;;;;;;5.40;3.20;;;;;;;17.69;75.79;99237.97;5004993;28;20569;-71
2021/08/16 11:17:02;;;;;;;8.38;3.13;;;;;;;17.63;76.78;99240.34;4995914;28;20069;-71
2021/08/16 11:19:46;;;;;;;3.75;2.38;;;;;;;17.59;76.53;99235.25;5004674;28;20034;-69
2021/08/16 11:22:13;;;;;;;6.38;2.53;;;;;;;17.53;76.92;99230.47;5002758;28;20037;-70
2021/08/16 11:24:40;;;;;;;7.10;3.35;;;;;;;17.55;77.74;99241.03;4992736;28;20108;-69
2021/08/16 11:27:11;;;;;;;4.03;2.75;;;;;;;17.56;78.18;99261.34;5001401;28;20106;-69
2021/08/16 11:29:37;;;;;;;4.85;3.03;;;;;;;17.38;75.59;99253.13;5003298;28;20504;-70